Time;durP1;ratioP1;P1;durP2;ratioP2;P2;SDS_P1;SDS_P2;PMS_P1;PMS_P2;Temp;Humidity;BMP_temperature;BMP_pressure;BME280_temperature;BME280_humidity;BME280_pressure;Samples;Min_cycle;Max_cycle;Signal;HPM_P1;HPM_P2
2021/04/10 00:02:14;;;;;;;30.83;12.45;;;;;;;29.66;48.24;101068.94;4805400;29;70842;-44
2021/04/10 00:04:44;;;;;;;27.13;13.57;;;;;;;29.82;49.69;101100.16;4789117;29;66218;-43
2021/04/10 00:07:14;;;;;;;43.72;15.50;;;;;;;29.83;51.75;101086.41;4789978;29;71239;-43
2021/04/10 00:09:44;;;;;;;29.20;17.63;;;;;;;29.91;52.48;101103.47;4793531;29;66387;-43
2021/04/10 00:12:14;;;;;;;31.17;18.67;;;;;;;29.89;53.96;101100.13;4794898;29;69136;-43
2021/04/10 00:14:43;;;;;;;44.72;21.60;;;;;;;29.97;55.64;101110.75;4792361;29;66470;-42
2021/04/10 00:17:13;;;;;;;39.63;21.83;;;;;;;30.01;55.80;101114.72;4793027;29;70045;-42
2021/04/10 00:19:42;;;;;;;50.35;22.58;;;;;;;30.01;56.77;101106.59;4794402;29;65090;-42
2021/04/10 00:22:15;;;;;;;47.10;24.85;;;;;;;30.04;57.24;101117.00;4797073;29;69848;-43
2021/04/10 00:24:45;;;;;;;47.83;24.40;;;;;;;30.08;57.01;101117.41;4794115;29;65418;-41
2021/04/10 00:27:14;;;;;;;41.72;24.80;;;;;;;30.10;57.73;101131.56;4795340;29;69958;-42
2021/04/10 00:29:44;;;;;;;52.45;26.80;;;;;;;30.11;58.19;101136.75;4792994;29;65605;-42
2021/04/10 00:32:13;;;;;;;55.90;27.27;;;;;;;30.13;58.92;101144.66;4795552;29;70097;-42
2021/04/10 00:34:43;;;;;;;54.72;29.10;;;;;;;30.16;59.53;101144.25;4796305;29;65790;-43
2021/04/10 00:37:16;;;;;;;54.20;30.92;;;;;;;30.20;58.70;101146.34;4796382;29;70032;-41
2021/04/10 00:39:45;;;;;;;50.25;27.95;;;;;;;30.23;58.96;101140.53;4796248;29;66096;-40
2021/04/10 00:42:15;;;;;;;64.45;30.48;;;;;;;30.30;58.78;101145.94;4794575;29;69733;-41
2021/04/10 00:44:44;;;;;;;60.03;30.10;;;;;;;30.33;58.56;101147.38;4802000;29;65991;-42
2021/04/10 00:47:16;;;;;;;57.90;29.57;;;;;;;30.37;59.03;101162.13;4795619;29;70225;-42
2021/04/10 00:49:47;;;;;;;58.50;29.25;;;;;;;30.41;59.19;101163.41;4798657;29;65613;-40
2021/04/10 00:52:21;;;;;;;55.97;28.80;;;;;;;30.48;58.56;101164.25;4795672;29;70876;-40
2021/04/10 00:54:53;;;;;;;56.08;30.02;;;;;;;30.47;59.53;101167.97;4805766;29;66183;-41
2021/04/10 00:57:24;;;;;;;56.42;30.83;;;;;;;30.40;59.34;101172.56;4795765;29;69933;-41
2021/04/10 00:59:54;;;;;;;58.40;31.70;;;;;;;30.33;60.34;101171.75;4792665;29;65957;-40
2021/04/10 01:02:24;;;;;;;62.20;31.20;;;;;;;30.08;61.58;101158.81;4788122;29;69857;-40
2021/04/10 01:04:54;;;;;;;78.10;42.63;;;;;;;30.25;60.87;101187.13;4791373;29;66092;-41
2021/04/10 01:07:23;;;;;;;76.45;47.65;;;;;;;30.26;60.88;101194.22;4787827;29;70594;-40
2021/04/10 01:09:59;;;;;;;73.60;40.90;;;;;;;30.31;60.99;101190.06;4810819;29;66211;-40
2021/04/10 01:12:47;;;;;;;65.93;36.93;;;;;;;30.30;60.64;101205.47;4792833;29;68871;-40
2021/04/10 01:15:25;;;;;;;69.43;40.45;;;;;;;30.29;62.12;101206.50;4792608;29;66097;-41
2021/04/10 01:18:27;;;;;;;75.68;39.22;;;;;;;30.23;62.10;101210.88;4786005;29;69124;-41
2021/04/10 01:21:09;;;;;;;64.90;40.60;;;;;;;30.30;61.22;101210.03;4789885;29;66284;-40
2021/04/10 01:24:03;;;;;;;68.88;40.85;;;;;;;30.25;61.80;101216.91;4793326;29;71455;-40
2021/04/10 01:26:57;;;;;;;70.03;42.95;;;;;;;30.21;61.90;101207.50;4801757;29;66109;-40
2021/04/10 01:29:28;;;;;;;76.22;41.95;;;;;;;30.31;60.51;101212.53;4799092;29;69732;-40
2021/04/10 01:32:03;;;;;;;67.38;41.08;;;;;;;30.33;60.34;101199.63;4812098;29;65189;-39
2021/04/10 01:34:37;;;;;;;63.45;39.47;;;;;;;30.38;60.39;101201.72;4794061;29;70487;-40
2021/04/10 01:37:15;;;;;;;66.20;38.90;;;;;;;30.40;61.47;101207.75;4793779;29;65413;-42
2021/04/10 01:39:47;;;;;;;70.03;39.78;;;;;;;30.33;60.44;101187.97;4794993;29;69539;-42
2021/04/10 01:42:22;;;;;;;61.13;40.03;;;;;;;30.47;60.07;101216.69;4797578;29;66144;-42
2021/04/10 01:44:56;;;;;;;72.43;40.97;;;;;;;30.28;60.87;101178.63;4809043;29;71260;-42
2021/04/10 01:47:25;;;;;;;70.88;42.42;;;;;;;30.54;60.37;101222.13;4796706;29;65535;-41
2021/04/10 01:49:57;;;;;;;66.57;40.67;;;;;;;30.56;60.87;101225.44;4797165;29;69911;-42
2021/04/10 01:52:29;;;;;;;67.90;42.17;;;;;;;30.58;60.11;101224.19;4793983;29;66245;-41
2021/04/10 01:55:04;;;;;;;68.97;43.67;;;;;;;30.60;60.53;101205.84;4808249;29;70801;-42
2021/04/10 01:57:40;;;;;;;67.00;42.58;;;;;;;30.71;60.32;101224.16;4800964;29;66299;-41
2021/04/10 02:00:16;;;;;;;67.32;42.30;;;;;;;30.69;60.76;101212.69;4793104;29;70016;-41
2021/04/10 02:02:53;;;;;;;64.32;42.88;;;;;;;30.64;60.76;101196.25;4808983;29;65879;-40
2021/04/10 02:05:32;;;;;;;77.35;43.67;;;;;;;30.79;61.08;101222.28;4795614;29;70381;-42
2021/04/10 02:08:27;;;;;;;60.38;40.35;;;;;;;30.82;60.27;101225.44;4793292;29;65727;-41
2021/04/10 02:11:03;;;;;;;62.35;41.08;;;;;;;30.84;60.26;101225.19;4800415;29;69962;-42
2021/04/10 02:13:47;;;;;;;61.53;41.08;;;;;;;30.88;59.98;101231.88;4795873;29;66310;-42
2021/04/10 02:16:29;;;;;;;65.75;44.30;;;;;;;30.90;60.57;101227.91;4810727;29;69374;-42
2021/04/10 02:19:08;;;;;;;64.22;43.78;;;;;;;30.93;59.97;101229.38;4811166;29;66087;-41
2021/04/10 02:21:39;;;;;;;67.53;42.65;;;;;;;30.97;60.05;101221.63;4794761;29;70036;-41
2021/04/10 02:24:16;;;;;;;62.45;40.08;;;;;;;31.01;59.95;101218.31;4794815;29;65739;-41
2021/04/10 02:26:59;;;;;;;48.65;33.60;;;;;;;30.98;60.06;101212.44;4799378;29;70843;-41
2021/04/10 02:29:31;;;;;;;48.88;32.28;;;;;;;31.05;60.07;101214.09;4799307;29;65296;-40
2021/04/10 02:32:06;;;;;;;40.47;29.65;;;;;;;31.09;59.61;101209.09;4794733;29;70252;-41
2021/04/10 02:35:01;;;;;;;38.60;27.60;;;;;;;31.06;60.21;101214.94;4808722;29;66330;-41
2021/04/10 02:37:32;;;;;;;32.25;24.85;;;;;;;31.12;59.66;101220.34;4807818;29;69975;-42
2021/04/10 02:40:08;;;;;;;31.90;23.92;;;;;;;31.18;59.96;101218.66;4800422;29;66345;-41
2021/04/10 02:42:45;;;;;;;31.27;23.30;;;;;;;31.07;59.37;101195.75;4797889;29;70054;-42
2021/04/10 02:45:28;;;;;;;24.40;20.15;;;;;;;31.24;59.45;101222.38;4793353;29;66286;-40
2021/04/10 02:48:05;;;;;;;29.13;20.15;;;;;;;31.09;59.18;101199.09;4799496;29;69659;-41
2021/04/10 02:50:37;;;;;;;22.90;18.15;;;;;;;31.19;59.77;101203.22;4794170;29;66088;-42
2021/04/10 02:53:10;;;;;;;18.98;16.48;;;;;;;31.28;59.60;101219.00;4800516;29;70115;-41
2021/04/10 02:55:47;;;;;;;22.83;15.30;;;;;;;31.27;59.13;101202.97;4794491;29;65614;-41
2021/04/10 02:58:22;;;;;;;16.08;14.45;;;;;;;31.19;58.92;101182.38;4798757;29;69991;-41
2021/04/10 03:00:56;;;;;;;18.83;14.23;;;;;;;31.17;59.32;101190.72;4809130;29;65451;-41
2021/04/10 03:03:32;;;;;;;16.25;14.43;;;;;;;31.35;58.82;101202.75;4801606;29;69943;-40
2021/04/10 03:06:05;;;;;;;16.20;14.60;;;;;;;31.36;59.35;101196.28;4801115;29;66718;-41
2021/04/10 03:08:36;;;;;;;15.25;13.73;;;;;;;31.41;59.21;101207.31;4798556;29;70717;-40
2021/04/10 03:11:13;;;;;;;13.75;12.32;;;;;;;31.44;59.08;101201.47;4796548;29;65460;-41
2021/04/10 03:13:46;;;;;;;14.85;11.68;;;;;;;31.45;58.72;101197.69;4806793;29;70139;-42
2021/04/10 03:16:29;;;;;;;18.08;11.55;;;;;;;31.47;59.11;101201.03;4797831;29;66056;-41
2021/04/10 03:19:06;;;;;;;12.95;11.10;;;;;;;31.52;59.32;101195.78;4811337;29;69263;-41
2021/04/10 03:21:43;;;;;;;15.73;11.50;;;;;;;31.54;59.11;101196.41;4799898;29;65877;-41
2021/04/10 03:24:17;;;;;;;13.68;12.18;;;;;;;31.56;58.75;101196.19;4791453;29;70355;-41
2021/04/10 03:26:47;;;;;;;12.70;11.43;;;;;;;31.59;58.66;101193.88;4801988;29;65598;-42
2021/04/10 03:29:28;;;;;;;13.13;11.63;;;;;;;31.63;59.04;101188.03;4787402;29;70171;-43
2021/04/10 03:32:01;;;;;;;10.98;10.00;;;;;;;31.64;59.14;101189.66;4797502;29;65429;-42
2021/04/10 03:34:36;;;;;;;11.13;10.02;;;;;;;31.65;58.37;101180.47;4794550;29;69946;-41
2021/04/10 03:37:08;;;;;;;9.98;9.38;;;;;;;31.67;58.48;101184.63;4794178;29;65546;-41
2021/04/10 03:39:40;;;;;;;11.02;9.73;;;;;;;31.73;58.75;101188.34;4795768;29;70401;-40
2021/04/10 03:42:13;;;;;;;10.43;9.50;;;;;;;31.73;58.71;101177.50;4777336;29;66299;-41
2021/04/10 03:44:43;;;;;;;10.90;9.80;;;;;;;31.75;58.45;101175.41;4805080;29;70027;-41
2021/04/10 03:47:33;;;;;;;9.68;8.77;;;;;;;31.78;58.65;101170.38;4794935;29;66093;-41
2021/04/10 03:50:08;;;;;;;9.20;8.48;;;;;;;31.79;58.41;101157.66;4800102;29;70461;-41
2021/04/10 03:52:39;;;;;;;9.18;8.30;;;;;;;31.80;58.89;101151.19;4807445;29;65540;-41
2021/04/10 03:55:10;;;;;;;10.60;9.60;;;;;;;31.85;58.24;101154.06;4791932;29;69466;-41
2021/04/10 03:57:41;;;;;;;20.38;15.13;;;;;;;31.90;59.01;101161.53;4798082;29;65930;-43
2021/04/10 04:00:13;;;;;;;28.85;21.00;;;;;;;31.88;58.20;101145.47;4802686;29;70471;-40
2021/04/10 04:02:43;;;;;;;40.57;27.10;;;;;;;31.98;57.74;101148.56;4793233;29;66689;-40
2021/04/10 04:05:15;;;;;;;30.15;23.50;;;;;;;32.03;57.12;101146.00;4801837;29;69947;-39
2021/04/10 04:07:45;;;;;;;29.42;21.25;;;;;;;31.96;56.59;101147.13;4792626;29;66452;-40
2021/04/10 04:10:16;;;;;;;22.75;19.23;;;;;;;31.89;55.44;101144.41;4801827;29;70144;-41
2021/04/10 04:12:46;;;;;;;21.33;17.73;;;;;;;31.79;54.74;101139.50;4794419;29;65450;-41
2021/04/10 04:15:15;;;;;;;17.13;15.32;;;;;;;31.53;54.26;101112.56;4809326;29;69491;-40
2021/04/10 04:17:45;;;;;;;16.58;14.98;;;;;;;31.64;53.67;101135.44;4796974;29;66440;-41
2021/04/10 04:20:16;;;;;;;14.60;13.45;;;;;;;31.57;53.27;101130.06;4791564;29;69385;-41
2021/04/10 04:22:45;;;;;;;14.75;12.85;;;;;;;31.50;52.71;101123.84;4794309;29;65258;-41
2021/04/10 04:25:18;;;;;;;12.70;11.57;;;;;;;31.48;51.24;101126.78;4801366;29;69600;-41
2021/04/10 04:27:56;;;;;;;22.73;16.52;;;;;;;31.47;52.36;101119.69;4795943;29;65194;-41
2021/04/10 04:30:27;;;;;;;16.92;15.23;;;;;;;31.42;51.79;101116.81;4796049;29;69815;-41
2021/04/10 04:32:57;;;;;;;18.40;15.85;;;;;;;31.36;51.43;101107.66;4796157;29;66316;-41
2021/04/10 04:35:29;;;;;;;23.08;15.38;;;;;;;31.33;50.86;101110.78;4793759;29;69952;-41
2021/04/10 04:37:59;;;;;;;32.80;14.82;;;;;;;31.33;50.67;101107.25;4789235;29;66795;-42
2021/04/10 04:40:29;;;;;;;14.43;13.10;;;;;;;31.30;49.65;101102.25;4787814;29;71084;-42
2021/04/10 04:42:59;;;;;;;21.30;13.35;;;;;;;31.23;50.28;101094.19;4798440;29;66403;-41
2021/04/10 04:45:28;;;;;;;18.70;13.82;;;;;;;31.23;49.98;101096.03;4794606;29;69454;-42
2021/04/10 04:47:58;;;;;;;18.08;13.77;;;;;;;31.27;50.00;101092.69;4791160;29;66124;-43
2021/04/10 04:50:30;;;;;;;;;;;;;;;31.18;48.88;101083.16;4792289;29;69294;-43
2021/04/10 04:52:59;;;;;;;13.18;10.85;;;;;;;31.25;48.48;101074.97;4791765;29;65890;-42
2021/04/10 04:55:29;;;;;;;11.20;10.20;;;;;;;31.23;48.52;101068.94;4790425;29;69965;-42
2021/04/10 04:57:58;;;;;;;10.23;9.45;;;;;;;31.24;47.55;101065.19;4787737;29;65547;-42
2021/04/10 05:00:31;;;;;;;9.52;8.50;;;;;;;31.27;47.48;101059.34;4789492;29;69463;-42
2021/04/10 05:03:00;;;;;;;11.10;10.48;;;;;;;31.25;47.84;101053.28;4790292;29;66022;-41
2021/04/10 05:05:30;;;;;;;12.00;10.05;;;;;;;31.23;47.61;101050.81;4808282;29;70525;-41
2021/04/10 05:07:59;;;;;;;16.73;12.82;;;;;;;31.21;49.13;101033.13;4796250;29;65882;-42
2021/04/10 05:10:29;;;;;;;13.30;12.18;;;;;;;31.29;47.99;101035.56;4794301;29;69969;-42
2021/04/10 05:12:59;;;;;;;12.27;11.18;;;;;;;31.29;47.48;101041.00;4794607;29;65482;-41
2021/04/10 05:15:29;;;;;;;13.63;10.02;;;;;;;31.21;46.86;101023.09;4793125;29;70243;-41
2021/04/10 05:17:59;;;;;;;9.85;9.07;;;;;;;31.26;46.24;101020.56;4790549;29;66155;-42
2021/04/10 05:20:30;;;;;;;9.32;8.63;;;;;;;31.25;45.96;101028.91;4790818;29;70372;-42
2021/04/10 05:23:03;;;;;;;8.73;7.93;;;;;;;31.26;45.95;101020.56;4793048;29;65583;-42
2021/04/10 05:25:33;;;;;;;8.85;7.20;;;;;;;31.25;45.52;101024.31;4795361;29;69944;-42
2021/04/10 05:28:03;;;;;;;7.88;7.15;;;;;;;31.27;45.08;101015.97;4796962;29;65583;-42
2021/04/10 05:30:32;;;;;;;7.60;7.10;;;;;;;31.27;44.67;101007.84;4806635;29;70534;-42
2021/04/10 05:33:02;;;;;;;7.22;6.82;;;;;;;31.25;44.69;101001.81;4794995;29;65333;-43
2021/04/10 05:35:35;;;;;;;6.70;5.93;;;;;;;31.26;43.80;101003.44;4791271;29;69780;-43
2021/04/10 05:38:06;;;;;;;6.15;5.75;;;;;;;31.29;43.98;100986.78;4793693;29;66206;-42
2021/04/10 05:40:35;;;;;;;5.68;5.38;;;;;;;31.29;43.37;100981.34;4796817;29;69353;-44
2021/04/10 05:43:04;;;;;;;7.18;5.25;;;;;;;31.28;43.45;100979.69;4800172;29;66465;-42
2021/04/10 05:45:34;;;;;;;5.30;5.00;;;;;;;31.27;43.22;100975.31;4795785;29;69839;-41
2021/04/10 05:48:04;;;;;;;5.70;5.28;;;;;;;31.27;42.66;100967.19;4797913;29;66321;-42
2021/04/10 05:50:36;;;;;;;5.90;5.50;;;;;;;31.30;43.46;100961.31;4796161;29;69237;-42
2021/04/10 05:53:05;;;;;;;8.73;6.00;;;;;;;31.30;43.90;100956.72;4798945;29;66056;-43
2021/04/10 05:55:35;;;;;;;8.73;5.30;;;;;;;31.31;43.30;100950.25;4795234;29;69447;-41
2021/04/10 05:58:05;;;;;;;6.25;5.20;;;;;;;31.29;42.94;100938.81;4798216;29;65539;-43
2021/04/10 06:00:35;;;;;;;5.22;4.93;;;;;;;31.30;42.71;100934.22;4795712;29;70948;-42
2021/04/10 06:03:09;;;;;;;6.22;5.38;;;;;;;31.31;43.15;100922.31;4798336;29;66369;-43
2021/04/10 06:05:39;;;;;;;5.72;5.22;;;;;;;31.32;42.53;100924.81;4803471;29;68344;-42
2021/04/10 06:08:09;;;;;;;6.00;5.47;;;;;;;31.33;42.43;100918.34;4800979;29;65235;-42
2021/04/10 06:10:39;;;;;;;7.38;4.55;;;;;;;31.32;42.04;100907.75;4796082;29;70174;-42
2021/04/10 06:13:09;;;;;;;5.10;4.50;;;;;;;31.28;42.01;100899.19;4794301;29;65636;-43
2021/04/10 06:15:38;;;;;;;5.35;4.85;;;;;;;31.33;42.24;100901.25;4794695;29;70327;-42
2021/04/10 06:18:08;;;;;;;4.93;4.53;;;;;;;31.24;42.25;100878.22;4796630;29;65145;-42
2021/04/10 06:20:39;;;;;;;4.75;4.35;;;;;;;31.39;41.21;100884.94;4799097;29;69131;-42
2021/04/10 06:23:09;;;;;;;4.50;4.20;;;;;;;31.39;41.42;100876.00;4804016;29;65134;-42
2021/04/10 06:25:38;;;;;;;5.85;3.60;;;;;;;31.38;41.44;100871.63;4795636;29;69373;-41
2021/04/10 06:28:13;;;;;;;4.03;3.72;;;;;;;31.44;41.34;100870.72;4799083;29;65423;-42
2021/04/10 06:30:43;;;;;;;4.03;3.72;;;;;;;31.44;40.93;100864.47;4792752;29;69721;-43
2021/04/10 06:33:12;;;;;;;7.30;3.75;;;;;;;31.47;40.97;100880.28;4803304;29;65091;-42
2021/04/10 06:35:42;;;;;;;3.50;3.17;;;;;;;31.49;40.55;100868.19;4803429;29;69750;-43
2021/04/10 06:38:11;;;;;;;3.83;3.55;;;;;;;31.50;40.69;100864.41;4802419;29;66004;-42
2021/04/10 06:40:47;;;;;;;3.25;3.05;;;;;;;31.50;39.99;100853.56;4800279;29;69796;-43
2021/04/10 06:43:17;;;;;;;4.32;3.38;;;;;;;31.51;40.55;100847.09;4795302;29;65881;-43
2021/04/10 06:45:46;;;;;;;3.45;3.13;;;;;;;31.51;40.39;100849.81;4793723;29;69182;-43
2021/04/10 06:48:17;;;;;;;3.47;3.17;;;;;;;31.57;40.47;100846.19;4796730;29;66231;-43
2021/04/10 06:50:47;;;;;;;3.38;3.17;;;;;;;31.61;39.92;100839.25;4793672;29;70050;-42
2021/04/10 06:53:23;;;;;;;3.05;2.88;;;;;;;31.38;40.20;100791.13;4795932;29;65843;-43
2021/04/10 06:55:56;;;;;;;3.55;3.35;;;;;;;31.58;39.91;100811.75;4795207;29;70104;-43
2021/04/10 06:58:43;;;;;;;3.28;3.05;;;;;;;31.68;39.12;100822.06;4796346;29;65979;-44
2021/04/10 07:01:16;;;;;;;2.65;2.55;;;;;;;31.73;39.74;100819.50;4799788;29;69581;-44
2021/04/10 07:03:49;;;;;;;3.25;3.05;;;;;;;31.74;39.41;100804.91;4803099;29;66392;-44
2021/04/10 07:06:19;;;;;;;8.38;3.30;;;;;;;31.77;39.30;100809.88;4801519;29;69305;-43
2021/04/10 07:08:49;;;;;;;3.17;2.85;;;;;;;31.74;39.21;100819.28;4801921;29;66453;-42
2021/04/10 07:11:20;;;;;;;5.47;3.47;;;;;;;31.74;39.69;100813.03;4798679;29;70196;-42
2021/04/10 07:13:50;;;;;;;7.20;6.70;;;;;;;31.80;42.10;100812.13;4798429;29;67192;-42
2021/04/10 07:16:19;;;;;;;13.90;11.23;;;;;;;32.02;44.15;100807.88;4802676;29;71042;-42
2021/04/10 07:18:49;;;;;;;18.45;13.85;;;;;;;32.17;45.23;100810.16;4805161;29;66105;-43
2021/04/10 07:21:21;;;;;;;15.85;14.35;;;;;;;32.30;46.47;100803.72;4803023;29;70276;-43
2021/04/10 07:23:55;;;;;;;14.90;13.73;;;;;;;32.26;47.69;100780.81;4799817;29;65325;-42
2021/04/10 07:26:57;;;;;;;15.48;14.02;;;;;;;32.54;47.37;100795.66;4795634;29;70253;-43
2021/04/10 07:29:39;;;;;;;18.23;15.25;;;;;;;32.66;47.32;100788.38;4797920;29;65882;-43
2021/04/10 07:32:34;;;;;;;15.60;14.00;;;;;;;32.73;48.12;100791.78;4803574;29;70456;-42
2021/04/10 07:35:11;;;;;;;15.52;13.98;;;;;;;32.72;47.32;100760.25;4794723;29;65684;-43
2021/04/10 07:37:48;;;;;;;15.25;13.73;;;;;;;32.71;47.44;100750.47;4789400;29;70786;-42
2021/04/10 07:40:26;;;;;;;17.05;13.85;;;;;;;32.91;47.53;100777.28;4791950;29;66060;-44
2021/04/10 07:43:01;;;;;;;14.63;13.43;;;;;;;33.10;47.71;100791.59;4790811;29;69858;-43
2021/04/10 07:45:33;;;;;;;14.85;13.48;;;;;;;33.13;47.54;100778.34;4795778;29;66427;-42
2021/04/10 07:48:07;;;;;;;17.58;13.27;;;;;;;33.20;47.89;100769.25;4794257;29;69000;-44
2021/04/10 07:50:38;;;;;;;14.55;13.07;;;;;;;33.10;47.61;100748.94;4798934;29;65911;-43
2021/04/10 07:53:27;;;;;;;18.23;13.73;;;;;;;33.27;47.93;100776.22;4796196;29;69594;-43
2021/04/10 07:55:59;;;;;;;15.10;12.85;;;;;;;33.23;47.91;100753.28;4797768;29;66203;-43
2021/04/10 07:58:30;;;;;;;14.07;12.80;;;;;;;33.33;47.88;100758.94;4799328;29;69818;-43
2021/04/10 08:01:08;;;;;;;17.83;12.55;;;;;;;33.22;48.35;100737.22;4808064;29;65819;-43
2021/04/10 08:03:42;;;;;;;16.35;12.10;;;;;;;33.42;48.38;100761.28;4795272;29;69828;-43
2021/04/10 08:06:14;;;;;;;16.48;12.13;;;;;;;33.34;48.28;100736.09;4802481;29;65735;-42
2021/04/10 08:08:57;;;;;;;15.23;11.38;;;;;;;33.36;48.86;100736.69;4806690;29;70491;-43
2021/04/10 08:11:40;;;;;;;13.30;12.00;;;;;;;33.43;48.70;100719.41;4806458;29;66000;-43
2021/04/10 08:14:14;;;;;;;13.05;11.77;;;;;;;33.61;48.58;100743.75;4797030;29;69921;-42
2021/04/10 08:16:52;;;;;;;18.98;11.57;;;;;;;33.51;48.60;100728.00;4802462;29;67150;-43
2021/04/10 08:19:33;;;;;;;11.57;10.48;;;;;;;33.55;49.12;100733.84;4805830;29;70394;-42
2021/04/10 08:22:03;;;;;;;12.02;10.80;;;;;;;33.74;48.69;100748.06;4808683;29;66195;-42
2021/04/10 08:24:45;;;;;;;12.07;10.73;;;;;;;33.81;48.54;100743.31;4802219;29;69203;-43
2021/04/10 08:27:15;;;;;;;11.23;10.23;;;;;;;33.87;49.19;100746.94;4800348;29;65499;-43
2021/04/10 08:29:45;;;;;;;19.75;9.82;;;;;;;33.91;49.16;100737.25;4800584;29;69849;-43
2021/04/10 08:32:16;;;;;;;16.08;10.30;;;;;;;33.96;49.25;100740.88;4807300;29;66499;-42
2021/04/10 08:34:45;;;;;;;20.80;10.45;;;;;;;33.96;49.56;100731.88;4806335;29;69207;-40
2021/04/10 08:37:19;;;;;;;19.17;10.15;;;;;;;34.05;49.81;100732.34;4804183;29;65428;-42
2021/04/10 08:39:51;;;;;;;31.02;10.32;;;;;;;34.12;50.10;100736.53;4807504;29;69006;-42
2021/04/10 08:42:21;;;;;;;29.60;10.77;;;;;;;34.17;49.98;100736.63;4808229;29;66284;-42
2021/04/10 08:44:52;;;;;;;25.52;10.60;;;;;;;34.20;49.83;100730.69;4803956;29;69203;-42
2021/04/10 08:47:23;;;;;;;29.90;9.80;;;;;;;34.15;50.26;100722.44;4801812;29;66048;-43
2021/04/10 08:49:54;;;;;;;21.80;10.00;;;;;;;34.18;50.14;100721.94;4799672;29;69594;-41
2021/04/10 08:52:33;;;;;;;19.30;9.82;;;;;;;34.22;49.93;100723.09;4790803;29;64553;-41
2021/04/10 08:55:07;;;;;;;35.75;10.50;;;;;;;34.23;49.52;100713.84;4795770;29;69276;-43
2021/04/10 08:57:43;;;;;;;19.20;9.98;;;;;;;34.35;49.79;100712.94;4806189;29;66505;-42
2021/04/10 09:00:18;;;;;;;11.13;9.60;;;;;;;34.37;49.85;100705.38;4801715;29;69153;-43
2021/04/10 09:02:56;;;;;;;24.40;10.30;;;;;;;34.24;49.93;100688.31;4803296;29;65394;-43
2021/04/10 09:05:47;;;;;;;13.43;9.40;;;;;;;34.33;49.94;100712.41;4801423;29;69246;-42
2021/04/10 09:08:42;;;;;;;18.37;10.47;;;;;;;34.34;49.84;100719.47;4805490;29;65394;-42
2021/04/10 09:11:22;;;;;;;25.23;11.27;;;;;;;34.32;49.54;100716.16;4803766;29;70541;-42
2021/04/10 09:13:53;;;;;;;19.27;11.23;;;;;;;34.40;49.54;100732.09;4798392;29;65358;-42
2021/04/10 09:16:25;;;;;;;20.10;10.98;;;;;;;34.42;49.68;100735.41;4797858;29;70159;-43
2021/04/10 09:19:05;;;;;;;26.77;11.35;;;;;;;34.44;49.61;100736.00;4804473;29;65406;-40
2021/04/10 09:21:52;;;;;;;12.73;10.35;;;;;;;34.30;49.54;100726.47;4803832;29;70406;-41
2021/04/10 09:24:29;;;;;;;16.17;10.65;;;;;;;34.40;49.54;100740.25;4798132;29;66261;-41
2021/04/10 09:27:21;;;;;;;16.27;9.75;;;;;;;34.25;49.28;100709.00;4789301;29;69182;-41
2021/04/10 09:30:02;;;;;;;16.27;9.95;;;;;;;34.38;49.39;100728.78;4796120;29;66193;-41
2021/04/10 09:32:47;;;;;;;19.58;9.98;;;;;;;34.45;48.86;100721.28;4797075;29;69456;-42
2021/04/10 09:35:19;;;;;;;14.65;9.77;;;;;;;34.28;49.15;100704.97;4787964;29;65839;-42
2021/04/10 09:37:58;;;;;;;13.45;9.90;;;;;;;34.28;48.76;100698.69;4788645;29;70113;-43
2021/04/10 09:40:48;;;;;;;21.60;10.43;;;;;;;34.37;49.11;100718.97;4793281;29;65567;-42
2021/04/10 09:43:19;;;;;;;12.20;9.60;;;;;;;34.40;48.75;100713.03;4802599;29;70088;-41
2021/04/10 09:45:50;;;;;;;25.13;10.32;;;;;;;34.39;48.91;100711.41;4802368;29;64748;-42
2021/04/10 09:48:24;;;;;;;22.33;9.80;;;;;;;34.34;48.79;100700.41;4800736;29;69781;-42
2021/04/10 09:50:54;;;;;;;24.10;10.60;;;;;;;34.41;49.47;100715.53;4793761;29;66276;-44
2021/04/10 10:47:09;;;;;;;18.65;12.48;;;;;;;33.81;51.83;100816.75;5029328;27;43012;-43
2021/04/10 10:49:41;;;;;;;26.95;12.90;;;;;;;33.57;51.72;100792.38;5029324;28;69829;-44
2021/04/10 10:52:17;;;;;;;29.85;13.35;;;;;;;33.83;52.05;100832.88;5029307;28;65606;-45
2021/04/10 10:54:48;;;;;;;30.17;12.60;;;;;;;33.81;51.84;100842.06;5027711;28;69783;-45
2021/04/10 10:57:21;;;;;;;30.37;13.40;;;;;;;33.78;51.98;100842.56;5029024;28;65699;-43
2021/04/10 11:00:09;;;;;;;26.27;14.00;;;;;;;33.69;51.79;100854.91;5018119;28;69765;-45
2021/04/10 11:02:39;;;;;;;20.75;13.88;;;;;;;33.71;51.66;100851.91;5015718;28;64514;-44
2021/04/10 11:05:10;;;;;;;30.48;13.27;;;;;;;33.70;51.82;100856.53;5017678;28;69613;-43
2021/04/10 11:07:39;;;;;;;32.30;13.68;;;;;;;33.71;52.31;100854.63;5027970;28;65846;-43
2021/04/10 11:10:09;;;;;;;28.17;13.63;;;;;;;33.65;52.29;100863.75;5022998;28;70110;-44
2021/04/10 11:12:39;;;;;;;27.67;15.48;;;;;;;33.67;51.99;100859.75;5012514;28;65963;-43
2021/04/10 11:15:11;;;;;;;33.55;14.10;;;;;;;33.62;52.39;100859.63;5016919;28;69532;-43
2021/04/10 11:17:41;;;;;;;19.58;13.27;;;;;;;33.64;52.33;100854.78;5019904;28;64486;-43
2021/04/10 11:20:48;;;;;;;24.40;13.43;;;;;;;33.53;53.21;100875.50;5019029;28;70542;-43
2021/04/10 11:23:18;;;;;;;28.08;14.85;;;;;;;33.58;52.91;100880.22;4952828;28;65998;-43
2021/04/10 11:25:53;;;;;;;26.23;14.38;;;;;;;33.55;53.68;100892.41;4969737;28;70310;-42
2021/04/10 11:28:30;;;;;;;21.63;14.57;;;;;;;33.18;53.72;100848.28;4997484;28;66413;-42
2021/04/10 11:31:06;;;;;;;23.77;13.23;;;;;;;33.15;53.66;100865.06;5020918;28;70533;-42
2021/04/10 11:33:38;;;;;;;18.05;14.13;;;;;;;33.46;53.60;100922.88;5026580;28;66206;-42
2021/04/10 11:36:08;;;;;;;24.55;14.65;;;;;;;33.38;53.97;100924.09;5024482;28;70841;-42
2021/04/10 11:39:04;;;;;;;32.97;15.63;;;;;;;33.36;53.96;100937.91;5028597;28;65555;-42
2021/04/10 11:41:47;;;;;;;34.45;16.92;;;;;;;33.36;54.45;100943.34;5019614;28;70285;-43
2021/04/10 11:44:18;;;;;;;35.08;18.02;;;;;;;33.34;54.89;100950.91;5024884;28;65252;-42
2021/04/10 11:46:58;;;;;;;34.15;16.85;;;;;;;33.03;55.40;100911.28;5012569;28;69754;-41
2021/04/10 11:49:32;;;;;;;29.83;17.25;;;;;;;33.11;55.01;100942.72;5012164;28;66607;-40
2021/04/10 11:52:11;;;;;;;24.42;15.82;;;;;;;33.04;53.91;100959.16;5011867;28;70494;-42
2021/04/10 11:54:41;;;;;;;22.75;15.52;;;;;;;32.84;53.68;100956.69;5006654;28;66529;-42
2021/04/10 11:57:35;;;;;;;22.00;14.45;;;;;;;32.71;53.11;100970.47;5019805;28;70256;-43
2021/04/10 12:00:18;;;;;;;24.77;13.77;;;;;;;32.33;52.67;100922.72;5000265;28;65449;-42
2021/04/10 12:02:48;;;;;;;24.83;13.65;;;;;;;32.57;52.16;100982.56;5001629;28;69069;-43
2021/04/10 12:05:22;;;;;;;16.42;13.38;;;;;;;32.43;51.66;100976.44;5016733;28;65424;-41
2021/04/10 12:08:11;;;;;;;22.05;13.48;;;;;;;32.32;51.73;100988.06;5014237;28;70262;-41
2021/04/10 12:10:50;;;;;;;15.27;12.63;;;;;;;31.94;51.22;100927.56;5013831;28;65465;-40
2021/04/10 12:13:24;;;;;;;14.48;13.13;;;;;;;31.86;51.22;100932.44;5019369;28;69613;-41
2021/04/10 12:15:57;;;;;;;16.63;11.25;;;;;;;32.15;51.17;100983.28;5009095;28;66520;-42
2021/04/10 12:18:27;;;;;;;;;;;;;;;31.91;50.88;100985.00;5015811;28;69988;-41
2021/04/10 12:21:01;;;;;;;13.15;11.20;;;;;;;32.05;51.35;100986.50;5013513;28;66382;-41
2021/04/10 12:23:30;;;;;;;12.75;11.40;;;;;;;32.07;50.61;100980.03;5011973;28;70103;-41
2021/04/10 12:26:02;;;;;;;14.77;11.27;;;;;;;32.00;50.36;100970.06;5013216;28;66192;-41
2021/04/10 12:28:37;;;;;;;12.00;10.77;;;;;;;31.99;50.23;100987.41;5015201;28;70178;-42
2021/04/10 12:31:10;;;;;;;16.33;11.13;;;;;;;31.86;50.37;100973.13;5015194;28;65902;-42
2021/04/10 12:33:41;;;;;;;12.48;11.02;;;;;;;31.82;50.53;100980.91;5007315;28;69256;-42
2021/04/10 12:36:14;;;;;;;16.33;10.45;;;;;;;31.80;50.42;100988.44;5008304;28;66073;-43
2021/04/10 12:38:44;;;;;;;16.92;11.57;;;;;;;31.70;50.59;100983.50;5015117;28;70176;-41
2021/04/10 12:41:17;;;;;;;15.52;10.30;;;;;;;31.57;50.24;100968.22;5011952;28;65263;-41